Latest Weather Observations for Gingin Airport

IDW60801

Issued at 5:34 pm WST Sunday 24 January 2021 (issued every 10 minutes, with the page automatically refreshed every 10 minutes)

About weather observations | Map of weather stations | Latest weather observations for WA | Other Formats
Station Details ID: 009178 Name: GINGIN AERO Lat: -31.46 Lon: 115.86 Height: 73.0 m
Data from the previous 72 hours. | See also: Recent months at Gingin Airport
Date/Time
WST
Temp
°C
App
Temp
°C
Dew
Point
°C
Rel
Hum
%
Delta-T
°C
Wind Press
QNH
hPa
Press
MSL
hPa
Rain since
9am
mm
Dir  Spd
km/h
Gust
km/h
Spd
kts
Gust
kts
24/05:30pm 23.5 20.2 12.8 51 6.2 SW 22 33 12 18 1007.3 1006.9 -
24/05:00pm 23.9 20.0 12.2 48 6.7 SW 24 35 13 19 1007.0 1006.6 -
24/04:30pm 24.1 19.7 11.8 46 7.0 SW 26 35 14 19 1007.0 1006.6 -
24/04:00pm 25.4 20.5 11.2 41 8.1 WSW 28 39 15 21 1007.0 1006.6 -
24/03:30pm 25.7 20.9 11.5 41 8.1 SW 28 39 15 21 1006.9 1006.5 -
24/03:00pm 25.6 20.7 11.4 41 8.1 WSW 28 39 15 21 1006.9 1006.5 -
24/02:30pm 26.1 21.3 11.5 40 8.3 SW 28 39 15 21 1006.9 1006.5 -
24/02:00pm 26.1 20.9 11.5 40 8.3 SW 30 41 16 22 1007.1 1006.7 -
24/01:30pm 26.0 20.3 11.0 39 8.5 WSW 32 43 17 23 1007.3 1006.9 -
24/01:00pm 22.6 20.9 18.2 76 2.8 W 24 35 13 19 1007.5 1007.1 -
24/12:30pm 24.1 19.8 15.9 60 5.0 WSW 33 46 18 25 1007.4 1007.0 -
24/12:00pm 26.3 22.4 13.4 45 7.6 WSW 26 41 14 22 1007.1 1006.7 -
24/11:30am 26.0 22.1 12.1 42 8.0 WSW 24 37 13 20 1007.3 1006.9 -
24/11:00am 26.1 22.3 12.5 42 7.9 WSW 24 32 13 17 1007.3 1006.9 -
24/10:30am 25.8 22.3 12.3 43 7.8 SW 22 39 12 21 1007.5 1007.1 -
24/10:00am 24.4 21.7 13.6 51 6.3 SSW 20 28 11 15 1007.6 1007.2 -
24/09:30am 24.2 22.2 14.0 53 6.0 SW 17 24 9 13 1007.7 1007.3 -
24/09:00am 23.2 22.4 15.0 60 4.9 WSW 13 20 7 11 1007.9 1007.5 -
24/08:30am 22.7 21.3 14.5 60 4.8 WSW 15 24 8 13 1007.9 1007.5 -
24/08:00am 21.6 21.7 14.5 64 4.2 WSW 7 13 4 7 1008.0 1007.6 -
24/07:30am 20.7 21.8 13.6 64 4.1 CALM 0 4 0 2 1007.7 1007.3 -
24/07:00am 18.7 18.8 13.8 73 2.8 SW 6 7 3 4 1007.5 1007.1 -
24/06:30am 16.8 18.0 13.7 82 1.8 CALM 0 0 0 0 1007.2 1006.8 -
24/06:00am 14.7 14.2 12.0 84 1.5 SW 6 6 3 3 1006.9 1006.5 -
24/05:30am 14.4 13.8 11.7 84 1.5 SW 6 9 3 5 1006.8 1006.4 -
24/05:00am 14.5 15.0 11.5 82 1.6 CALM 0 0 0 0 1006.6 1006.2 -
24/04:30am 15.1 15.7 11.9 81 1.7 CALM 0 0 0 0 1006.1 1005.7 -
24/04:00am 15.4 14.7 12.0 80 1.9 SW 7 7 4 4 1006.0 1005.6 -
24/03:30am 15.7 16.2 11.7 77 2.2 CALM 0 0 0 0 1005.8 1005.4 -
24/03:00am 17.4 16.9 12.5 73 2.7 SW 7 9 4 5 1005.7 1005.3 -
24/02:30am 18.4 17.9 12.8 70 3.1 SSW 7 7 4 4 1005.5 1005.1 -
24/02:00am 19.4 18.3 13.1 67 3.6 SW 11 17 6 9 1005.4 1005.0 -
24/01:30am 20.2 19.0 13.9 67 3.6 SSW 13 17 7 9 1005.4 1005.0 -
24/01:00am 20.4 19.5 13.6 65 3.9 SW 11 15 6 8 1005.5 1005.1 -
24/12:30am 20.4 19.4 13.4 64 4.0 SW 11 13 6 7 1005.8 1005.4 -
24/12:00am 20.5 19.4 13.0 62 4.3 SW 11 15 6 8 1006.0 1005.6 -
 
Date/Time
WST
Temp
°C
App
Temp
°C
Dew
Point
°C
Rel
Hum
%
Delta-T
°C
Wind Press
QNH
hPa
Press
MSL
hPa
Rain since
9am
mm
Dir  Spd
km/h
Gust
km/h
Spd
kts
Gust
kts
23/11:30pm 20.6 18.3 13.1 62 4.3 WSW 17 20 9 11 1006.3 1005.9 -
23/11:00pm 20.8 18.1 13.5 63 4.2 WSW 20 26 11 14 1006.5 1006.1 -
23/10:30pm 20.9 18.6 14.1 65 4.0 WSW 19 24 10 13 1006.7 1006.3 -
23/10:00pm 21.2 18.8 14.4 65 4.0 WSW 20 26 11 14 1006.7 1006.3 -
23/09:30pm 21.3 19.1 14.9 67 3.8 WSW 20 26 11 14 1006.4 1006.0 -
23/09:00pm 21.2 19.1 15.3 69 3.5 WSW 20 28 11 15 1006.2 1005.8 -
23/08:30pm 21.5 19.6 15.8 70 3.4 SW 20 26 11 14 1005.9 1005.5 -
23/08:00pm 21.6 19.7 15.7 69 3.6 WSW 20 26 11 14 1005.6 1005.2 -
23/07:30pm 22.0 20.2 16.1 69 3.6 WSW 20 28 11 15 1005.5 1005.1 -
23/07:00pm 22.1 19.9 15.9 68 3.8 SW 22 32 12 17 1005.1 1004.7 -
23/06:30pm 22.5 19.8 15.6 65 4.1 SW 24 32 13 17 1004.6 1004.2 -
23/06:00pm 23.4 20.9 16.2 64 4.4 WSW 24 33 13 18 1004.2 1003.8 -
23/05:30pm 23.8 21.4 16.3 63 4.6 SW 24 33 13 18 1003.7 1003.3 -
23/05:00pm 24.7 21.8 16.2 59 5.2 SSW 26 33 14 18 1003.3 1002.9 -
23/04:30pm 25.1 22.0 15.7 56 5.7 SW 26 35 14 19 1003.2 1002.8 -
23/04:00pm 25.7 23.0 15.7 54 6.1 SW 24 33 13 18 1003.1 1002.7 -
23/03:30pm 26.2 23.7 16.2 54 6.2 SW 24 33 13 18 1003.2 1002.8 -
23/03:00pm 25.6 21.9 15.9 55 6.0 SW 30 39 16 21 1003.3 1002.9 -
23/02:30pm 26.3 23.7 16.0 53 6.3 WSW 24 37 13 20 1003.2 1002.8 -
23/02:00pm 26.8 23.5 16.1 52 6.6 WSW 28 37 15 20 1003.2 1002.8 -
23/01:30pm 26.5 23.3 16.4 53 6.2 SW 28 37 15 20 1003.3 1002.9 -
23/01:00pm 26.3 24.1 16.8 56 5.9 SW 24 35 13 19 1003.3 1002.9 -
23/12:30pm 26.5 23.3 16.4 53 6.2 SW 28 37 15 20 1003.3 1002.9 -
23/12:00pm 26.7 23.4 16.9 55 6.1 WSW 30 41 16 22 1003.3 1002.9 -
23/11:30am 26.5 23.1 17.6 58 5.6 WSW 32 43 17 23 1003.4 1003.0 -
23/11:00am 27.0 23.3 17.5 56 6.0 WSW 33 43 18 23 1003.4 1003.0 -
23/10:30am 27.4 25.2 17.8 55 6.1 WSW 26 37 14 20 1003.2 1002.8 -
23/10:00am 26.9 25.2 17.1 55 6.2 WSW 22 30 12 16 1002.9 1002.6 -
23/09:30am 26.6 25.5 17.7 58 5.6 WSW 20 33 11 18 1002.7 1002.4 -
23/09:00am 26.2 25.5 17.3 58 5.6 W 17 24 9 13 1002.7 1002.4 -
23/08:30am 25.7 25.6 17.9 62 4.9 W 15 20 8 11 1002.6 1002.3 -
23/08:00am 23.6 25.5 18.5 73 3.2 WNW 6 11 3 6 1002.4 1002.1 -
23/07:30am 21.6 24.3 18.6 83 1.9 NNE 2 7 1 4 1002.2 1001.9 -
23/07:00am 18.4 19.5 16.7 90 1.0 NNE 6 9 3 5 1002.0 1001.7 -
23/06:30am 16.7 18.1 15.4 92 0.8 NE 2 9 1 5 1001.8 1001.5 -
23/06:00am 15.3 14.5 14.0 92 0.7 NNE 11 15 6 8 1001.7 1001.4 -
23/05:30am 15.3 15.1 13.7 90 0.9 WNW 7 9 4 5 1001.6 1001.3 -
23/05:00am 15.5 15.5 13.7 89 1.0 NW 6 9 3 5 1001.2 1000.9 -
23/04:30am 15.8 15.3 13.8 88 1.1 WNW 9 11 5 6 1000.7 1000.4 -
23/04:00am 15.6 15.6 13.6 88 1.1 NNE 6 22 3 12 1000.9 1000.6 -
23/03:30am 15.2 16.2 13.2 88 1.1 CALM 0 0 0 0 1000.7 1000.4 -
23/03:00am 15.4 14.4 13.4 88 1.1 NE 11 13 6 7 1001.0 1000.7 -
23/02:30am 15.5 15.2 13.3 87 1.2 NE 7 9 4 5 1000.9 1000.6 -
23/02:00am 15.7 16.7 13.2 85 1.4 CALM 0 4 0 2 1001.0 1000.7 -
23/01:30am 16.0 16.0 13.5 85 1.4 NE 6 7 3 4 1001.1 1000.8 -
23/01:00am 16.3 16.3 13.6 84 1.5 NE 6 9 3 5 1001.5 1001.2 -
23/12:30am 17.3 17.6 14.4 83 1.7 NE 6 6 3 3 1001.5 1001.2 -
23/12:00am 17.5 17.5 14.2 81 1.9 SSW 7 9 4 5 1002.0 1001.7 -
 
Date/Time
WST
Temp
°C
App
Temp
°C
Dew
Point
°C
Rel
Hum
%
Delta-T
°C
Wind Press
QNH
hPa
Press
MSL
hPa
Rain since
9am
mm
Dir  Spd
km/h
Gust
km/h
Spd
kts
Gust
kts
22/11:30pm 19.0 19.4 14.7 76 2.5 SW 6 9 3 5 1002.2 1001.9 -
22/11:00pm 20.6 20.4 15.8 74 2.9 SSW 11 13 6 7 1002.4 1002.1 -
22/10:30pm 21.0 22.0 15.3 70 3.4 SSE 4 6 2 3 1002.4 1002.1 -
22/10:00pm 21.4 21.8 15.3 68 3.6 S 7 9 4 5 1002.2 1001.9 -
22/09:30pm 22.1 22.2 15.5 66 4.0 S 9 13 5 7 1002.4 1002.1 -
22/09:00pm 22.7 22.0 15.3 63 4.4 SSW 13 20 7 11 1002.4 1002.1 -
22/08:30pm 23.3 21.8 14.3 57 5.3 SSW 15 20 8 11 1002.8 1002.5 -
22/08:00pm 24.4 22.4 13.9 52 6.2 S 17 20 9 11 1002.6 1002.3 -
22/07:30pm 25.2 23.2 14.0 49 6.6 SSW 17 20 9 11 1002.6 1002.3 -
22/07:00pm 26.9 24.6 14.6 46 7.4 SSW 20 28 11 15 1002.4 1002.1 -
22/06:30pm 28.1 26.0 15.1 45 7.9 SW 20 26 11 14 1002.1 1001.8 -
22/06:00pm 29.1 25.8 14.9 42 8.7 SSW 26 32 14 17 1002.0 1001.7 -
22/05:30pm 29.2 25.7 13.4 38 9.4 SW 24 35 13 19 1002.1 1001.8 -
22/05:00pm 29.7 25.5 16.1 43 8.5 SW 33 46 18 25 1001.8 1001.5 -
22/04:30pm 28.8 24.0 15.7 45 8.1 SW 35 43 19 23 1001.8 1001.5 -
22/04:00pm 31.4 27.1 16.9 41 9.2 SW 35 43 19 23 1001.8 1001.5 -
22/03:30pm 34.4 30.4 16.7 34 11.3 WSW 33 41 18 22 1001.6 1001.3 -
22/03:00pm 37.4 32.7 12.1 22 15.3 WSW 28 37 15 20 1001.5 1001.2 -
22/02:30pm 37.3 33.2 11.3 21 15.5 WSW 24 32 13 17 1001.7 1001.4 -
22/02:00pm 37.2 34.0 11.2 21 15.5 SW 19 32 10 17 1002.0 1001.7 -
22/01:30pm 37.8 36.0 9.4 18 16.5 SE 9 20 5 11 1002.4 1002.1 -
22/01:00pm 36.1 34.9 10.3 21 15.2 N 7 11 4 6 1002.8 1002.5 -
22/12:30pm 35.4 33.9 10.4 22 14.6 E 9 17 5 9 1003.5 1003.1 -
22/12:00pm 34.5 33.3 11.6 25 13.6 NE 9 19 5 10 1003.9 1003.5 -
22/11:30am 33.7 32.5 12.7 28 12.6 NNE 11 19 6 10 1004.4 1004.0 -
22/11:00am 32.0 30.4 12.8 31 11.5 E 13 20 7 11 1004.8 1004.4 -
22/10:30am 30.8 28.8 12.7 33 10.7 ENE 15 20 8 11 1005.3 1004.9 -
22/10:00am 29.1 26.7 12.5 36 9.8 ENE 17 26 9 14 1005.8 1005.4 -
22/09:30am 28.5 25.9 13.2 39 9.1 ENE 19 24 10 13 1006.1 1005.7 -
22/09:00am 26.9 24.1 13.3 43 8.0 E 20 28 11 15 1006.3 1005.9 -
22/08:30am 25.5 22.2 12.7 45 7.4 E 22 30 12 16 1006.3 1005.9 -
22/08:00am 24.3 20.7 12.9 49 6.6 E 24 30 13 16 1006.7 1006.3 -
22/07:30am 23.1 18.6 12.7 52 6.0 E 28 35 15 19 1006.8 1006.4 -
22/07:00am 22.2 19.2 12.7 55 5.4 E 20 30 11 16 1007.0 1006.6 -
22/06:30am 21.3 18.0 12.7 58 4.9 E 22 30 12 16 1007.0 1006.6 -
22/06:00am 20.5 17.5 12.5 60 4.5 ESE 20 28 11 15 1006.9 1006.5 -
22/05:30am 20.5 17.7 12.5 60 4.5 ESE 19 26 10 14 1006.9 1006.5 -
22/05:00am 20.8 18.4 12.5 59 4.7 ESE 17 24 9 13 1006.8 1006.4 -
22/04:30am 21.4 16.9 12.5 57 5.1 E 28 35 15 19 1006.6 1006.2 -
22/04:00am 21.8 18.8 12.6 56 5.3 ESE 20 30 11 16 1006.6 1006.2 -
22/03:30am 22.4 18.6 12.4 53 5.7 ESE 24 35 13 19 1006.7 1006.3 -
22/03:00am 23.1 20.1 12.4 51 6.1 ESE 20 30 11 16 1006.8 1006.4 -
22/02:30am 23.9 20.0 12.2 48 6.7 ESE 24 33 13 18 1007.0 1006.6 -
22/02:00am 24.6 20.9 11.5 44 7.4 ESE 22 30 12 16 1007.2 1006.8 -
22/01:30am 24.8 21.2 11.7 44 7.5 ESE 22 30 12 16 1007.4 1007.0 -
22/01:00am 25.4 21.6 12.3 44 7.6 ESE 24 32 13 17 1007.5 1007.1 -
22/12:30am 23.3 22.0 15.9 63 4.5 ESE 17 28 9 15 1007.5 1007.1 -
22/12:00am 20.9 21.8 17.5 81 2.1 ESE 9 13 5 7 1007.7 1007.3 -
 
Date/Time
WST
Temp
°C
App
Temp
°C
Dew
Point
°C
Rel
Hum
%
Delta-T
°C
Wind Press
QNH
hPa
Press
MSL
hPa
Rain since
9am
mm
Dir  Spd
km/h
Gust
km/h
Spd
kts
Gust
kts
21/11:30pm 21.4 22.5 18.0 81 2.1 SE 9 11 5 6 1007.8 1007.4 -
21/11:00pm 21.4 22.9 17.6 79 2.4 SE 6 7 3 4 1007.9 1007.5 -
21/10:30pm 22.6 24.3 18.4 77 2.6 SE 7 9 4 5 1008.0 1007.6 -
21/10:00pm 23.2 24.4 18.3 74 3.1 SSW 9 9 5 5 1008.1 1007.7 -
21/09:30pm 23.8 24.5 18.0 70 3.6 SSW 11 13 6 7 1008.2 1007.8 -
21/09:00pm 24.3 24.6 18.0 68 4.0 SSW 13 17 7 9 1008.3 1007.9 -
21/08:30pm 24.7 24.2 17.7 65 4.4 SSW 17 24 9 13 1008.2 1007.8 -
21/08:00pm 24.9 23.8 17.4 63 4.7 SSW 19 28 10 15 1008.1 1007.7 -
21/07:30pm 25.2 24.1 17.4 62 4.9 SSW 19 26 10 14 1008.1 1007.7 -
21/07:00pm 26.8 24.5 16.7 54 6.3 SSW 24 32 13 17 1008.0 1007.6 -
21/06:30pm 28.2 25.3 16.1 47 7.5 SSW 26 35 14 19 1007.9 1007.5 -
21/06:00pm 29.5 25.8 16.0 44 8.4 SSW 30 37 16 20 1007.5 1007.1 -

Other formats

Comma delimited format used in spreadsheet applications
http://www.bom.gov.au/fwo/IDW60801/IDW60801.95612.axf

JavaScript Object Notation format (JSON) in row-major order
http://www.bom.gov.au/fwo/IDW60801/IDW60801.95612.json

Data quality

Most of these data are generated automatically and are frequently updated. Quality checks on data are not normally performed. It is possible for incorrect values to appear. Refer to information at About Latest Weather Observations and please check the disclaimer before using these data.